Taihei Maru — JG5546 — position and weather

sailwx.info

Track history (hours):
 
Tides and Currents Weather Stations Pressure Air Temp Water Temp Dewpoint Dewpoint Depression Visibility Wind Speed Wind Dir Waves Ship Positions

Taihei Maru

Last reported at 2017-Nov-19 09:40 UTC. Time now 2017-Nov-24 03:36 UTC.
Position N 34°35' E 134°51'.

Length 62 m; draft 4.2 m.

Type: Ship. MMSI: 431301369.

Date/timePositionNaut miles runAvg speedWind from/ knotsBaromVisibWave heightAir tempDewpointWater temp
2017-Nov-19 09:40N 34°35' E 134°51'312.6
2017-Nov-19 09:27N 34°36' E 134°55'710.5
2017-Nov-19 08:47N 34°36' E 135°03'311.1
2017-Nov-19 08:29N 34°36' E 135°07'511.4
2017-Nov-19 08:00N 34°36' E 135°14'511.2
2017-Nov-19 07:30N 34°35' E 135°20'5 0.8
2017-Nov-19 01:54N 34°32' E 135°25'0 0.7
2017-Nov-19 01:30N 34°33' E 135°25'0 0.9
2017-Nov-19 01:00N 34°33' E 135°25'2 1.3
2017-Nov-18 23:30N 34°34' E 135°23'4 8.2
2017-Nov-18 23:01N 34°34' E 135°18'611.9
2017-Nov-18 22:31N 34°34' E 135°11'611.9
2017-Nov-18 22:00N 34°35' E 135°04'5 7.8
2017-Nov-18 21:22N 34°36' E 134°58'  
2017-Nov-12 22:22N 34°32' E 135°25'1 2.0
2017-Nov-12 21:58N 34°33' E 135°25'2 4.1
2017-Nov-12 21:31N 34°34' E 135°23'0 0.0
2017-Nov-12 15:27N 34°34' E 135°23'0 0.0
2017-Nov-12 14:57N 34°34' E 135°23'0 0.0
2017-Nov-12 11:57N 34°34' E 135°23'0 0.0
2017-Nov-12 10:21N 34°34' E 135°23'0 0.0
2017-Nov-12 09:57N 34°34' E 135°23'0 0.0
2017-Nov-12 09:27N 34°34' E 135°23'0 0.0
2017-Nov-12 08:57N 34°34' E 135°23'0 0.0
2017-Nov-11 20:21N 34°34' E 135°23'0 0.0
2017-Nov-11 19:57N 34°34' E 135°23'0 0.0
2017-Nov-11 15:39N 34°34' E 135°23'0 0.3
2017-Nov-11 15:29N 34°34' E 135°23'4 8.1
2017-Nov-11 15:00N 34°34' E 135°18'611.6
2017-Nov-11 14:30N 34°34' E 135°11'612.7
2017-Nov-11 14:00N 34°35' E 135°04'812.3
2017-Nov-11 13:22N 34°35' E 134°54'  
Track history (hours):
 
Tides and Currents Weather Stations Pressure Air Temp Water Temp Dewpoint Dewpoint Depression Visibility Wind Speed Wind Dir Waves Ship Positions

Taihei Maru

Last reported at 2017-Nov-19 09:40 UTC. Time now 2017-Nov-24 03:36 UTC.
Position N 34°35' E 134°51'.

Length 62 m; draft 4.2 m.

Type: Ship. MMSI: 431301369.

Date/timePositionNaut miles runAvg speedWind from/ knotsBaromVisibWave heightAir tempDewpointWater temp
2017-Nov-19 09:40N 34°35' E 134°51'312.6
2017-Nov-19 09:27N 34°36' E 134°55'710.5
2017-Nov-19 08:47N 34°36' E 135°03'311.1
2017-Nov-19 08:29N 34°36' E 135°07'511.4
2017-Nov-19 08:00N 34°36' E 135°14'511.2
2017-Nov-19 07:30N 34°35' E 135°20'5 0.8
2017-Nov-19 01:54N 34°32' E 135°25'0 0.7
2017-Nov-19 01:30N 34°33' E 135°25'0 0.9
2017-Nov-19 01:00N 34°33' E 135°25'2 1.3
2017-Nov-18 23:30N 34°34' E 135°23'4 8.2
2017-Nov-18 23:01N 34°34' E 135°18'611.9
2017-Nov-18 22:31N 34°34' E 135°11'611.9
2017-Nov-18 22:00N 34°35' E 135°04'5 7.8
2017-Nov-18 21:22N 34°36' E 134°58'  
2017-Nov-12 22:22N 34°32' E 135°25'1 2.0
2017-Nov-12 21:58N 34°33' E 135°25'2 4.1
2017-Nov-12 21:31N 34°34' E 135°23'0 0.0
2017-Nov-12 15:27N 34°34' E 135°23'0 0.0
2017-Nov-12 14:57N 34°34' E 135°23'0 0.0
2017-Nov-12 11:57N 34°34' E 135°23'0 0.0
2017-Nov-12 10:21N 34°34' E 135°23'0 0.0
2017-Nov-12 09:57N 34°34' E 135°23'0 0.0
2017-Nov-12 09:27N 34°34' E 135°23'0 0.0
2017-Nov-12 08:57N 34°34' E 135°23'0 0.0
2017-Nov-11 20:21N 34°34' E 135°23'0 0.0
2017-Nov-11 19:57N 34°34' E 135°23'0 0.0
2017-Nov-11 15:39N 34°34' E 135°23'0 0.3
2017-Nov-11 15:29N 34°34' E 135°23'4 8.1
2017-Nov-11 15:00N 34°34' E 135°18'611.6
2017-Nov-11 14:30N 34°34' E 135°11'612.7
2017-Nov-11 14:00N 34°35' E 135°04'812.3
2017-Nov-11 13:22N 34°35' E 134°54'  

Dump ship's entire track history